createdAt,value
2022-11-24T00:00:36.059Z,6.10
2022-11-24T00:01:36.048Z,6.19
2022-11-24T00:02:36.146Z,6.10
2022-11-24T00:03:36.164Z,6.05
2022-11-24T00:04:36.342Z,5.95
2022-11-24T00:05:36.017Z,5.98
2022-11-24T00:06:36.008Z,5.96
2022-11-24T00:07:36.099Z,6.06
2022-11-24T00:08:35.995Z,5.99
2022-11-24T00:09:35.997Z,5.95
2022-11-24T00:10:35.969Z,5.98
2022-11-24T00:11:35.976Z,5.95
2022-11-24T00:12:35.965Z,5.93
2022-11-24T00:13:35.959Z,6.02
2022-11-24T00:14:36.132Z,5.84
2022-11-24T00:15:36.929Z,5.93
2022-11-24T00:16:35.989Z,6.02
2022-11-24T00:17:35.910Z,5.92
2022-11-24T00:18:35.906Z,5.77
2022-11-24T00:19:35.905Z,5.75
2022-11-24T00:20:35.885Z,5.81
2022-11-24T00:21:35.873Z,5.74
2022-11-24T00:22:35.863Z,5.83
2022-11-24T00:23:35.862Z,5.70
2022-11-24T00:24:36.016Z,5.77
2022-11-24T00:25:35.839Z,5.73
2022-11-24T00:26:35.834Z,5.80
2022-11-24T00:27:35.818Z,5.77
2022-11-24T00:28:36.820Z,5.77
2022-11-24T00:29:35.804Z,5.81
2022-11-24T00:30:35.819Z,5.88
2022-11-24T00:31:35.875Z,5.84
2022-11-24T00:32:35.773Z,5.92
2022-11-24T00:33:35.765Z,5.84
2022-11-24T00:34:35.979Z,5.92
2022-11-24T00:35:35.747Z,5.98
2022-11-24T00:36:35.749Z,6.02
2022-11-24T00:37:35.746Z,5.98
2022-11-24T00:38:35.723Z,5.92
2022-11-24T00:39:35.723Z,6.03
2022-11-24T00:40:35.706Z,5.92
2022-11-24T00:41:35.693Z,5.90
2022-11-24T00:42:35.686Z,6.01
2022-11-24T00:43:35.679Z,6.01
2022-11-24T00:44:35.803Z,5.95
2022-11-24T00:45:35.700Z,5.98
2022-11-24T00:46:35.825Z,6.01
2022-11-24T00:47:35.639Z,5.98
2022-11-24T00:48:35.634Z,6.01
2022-11-24T00:49:35.632Z,6.08
2022-11-24T00:50:35.625Z,6.02
2022-11-24T00:51:35.606Z,6.03
2022-11-24T00:52:35.598Z,6.14
2022-11-24T00:53:35.590Z,6.13
2022-11-24T00:54:35.776Z,6.17
2022-11-24T00:55:35.569Z,6.10
2022-11-24T00:56:35.561Z,6.20
2022-11-24T00:57:35.553Z,6.19
2022-11-24T00:58:35.550Z,6.20
2022-11-24T00:59:35.546Z,6.13
2022-11-24T01:00:35.546Z,6.14
2022-11-24T01:01:35.615Z,6.20
2022-11-24T01:02:35.597Z,6.10
2022-11-24T01:03:35.501Z,6.03
2022-11-24T01:04:35.913Z,6.08
2022-11-24T01:05:35.477Z,6.05
2022-11-24T01:06:35.473Z,5.99
2022-11-24T01:07:35.486Z,6.08
2022-11-24T01:08:35.452Z,6.06
2022-11-24T01:09:35.471Z,6.16
2022-11-24T01:10:35.447Z,6.16
2022-11-24T01:11:35.428Z,6.25
2022-11-24T01:12:35.423Z,6.20
2022-11-24T01:13:35.413Z,6.21
2022-11-24T01:14:35.853Z,6.28
2022-11-24T01:15:35.434Z,6.27
2022-11-24T01:16:35.389Z,6.30
2022-11-24T01:17:35.377Z,6.21
2022-11-24T01:18:35.374Z,6.30
2022-11-24T01:19:35.373Z,6.32
2022-11-24T01:20:35.377Z,6.33
2022-11-24T01:21:35.349Z,6.33
2022-11-24T01:22:35.334Z,6.28
2022-11-24T01:23:35.324Z,6.36
2022-11-24T01:24:35.665Z,6.32
2022-11-24T01:25:35.303Z,6.35
2022-11-24T01:26:35.295Z,6.28
2022-11-24T01:27:35.285Z,6.33
2022-11-24T01:28:35.277Z,6.25
2022-11-24T01:29:35.284Z,6.32
2022-11-24T01:30:35.310Z,6.36
2022-11-24T01:31:35.250Z,6.30
2022-11-24T01:32:35.240Z,6.33
2022-11-24T01:33:35.232Z,6.27
2022-11-24T01:34:35.523Z,6.39
2022-11-24T01:35:35.211Z,6.32
2022-11-24T01:36:35.206Z,6.32
2022-11-24T01:37:35.197Z,6.39
2022-11-24T01:38:35.180Z,6.20
2022-11-24T01:39:36.190Z,6.20
2022-11-24T01:40:35.224Z,6.27
2022-11-24T01:41:35.162Z,6.20
2022-11-24T01:42:35.155Z,6.33
2022-11-24T01:43:35.141Z,6.21
2022-11-24T01:44:35.388Z,6.21
2022-11-24T01:45:35.130Z,6.25
2022-11-24T01:46:35.203Z,6.20
2022-11-24T01:47:35.110Z,6.20
2022-11-24T01:48:35.098Z,6.13
2022-11-24T01:49:35.100Z,6.21
2022-11-24T01:50:35.103Z,6.28
2022-11-24T01:51:35.072Z,6.33
2022-11-24T01:52:35.061Z,6.24
2022-11-24T01:53:35.052Z,6.13
2022-11-24T01:54:35.290Z,6.11
2022-11-24T01:55:35.037Z,6.13
2022-11-24T01:56:35.024Z,6.19
2022-11-24T01:57:35.019Z,6.02
2022-11-24T01:58:35.014Z,6.01
2022-11-24T01:59:35.013Z,6.05
2022-11-24T02:00:34.994Z,6.10
2022-11-24T02:01:35.055Z,6.03
2022-11-24T02:02:35.040Z,6.10
2022-11-24T02:03:34.969Z,6.25
2022-11-24T02:04:35.186Z,6.21
2022-11-24T02:05:34.949Z,6.19
2022-11-24T02:06:34.961Z,6.25
2022-11-24T02:07:34.961Z,6.13
2022-11-24T02:08:34.920Z,6.20
2022-11-24T02:09:34.947Z,6.13
2022-11-24T02:10:34.923Z,6.01
2022-11-24T02:11:34.888Z,6.14
2022-11-24T02:12:34.888Z,6.13
2022-11-24T02:13:34.873Z,6.25
2022-11-24T02:14:35.080Z,6.16
2022-11-24T02:15:34.897Z,6.21
2022-11-24T02:16:34.848Z,6.10
2022-11-24T02:17:34.853Z,6.05
2022-11-24T02:18:34.835Z,6.08
2022-11-24T02:19:34.833Z,6.13
2022-11-24T02:20:34.815Z,6.16
2022-11-24T02:21:34.825Z,6.20
2022-11-24T02:22:34.794Z,6.19
2022-11-24T02:23:34.785Z,6.17
2022-11-24T02:24:35.073Z,6.13
2022-11-24T02:25:34.765Z,6.24
2022-11-24T02:26:34.763Z,6.11
2022-11-24T02:27:34.745Z,6.32
2022-11-24T02:28:34.736Z,6.24
2022-11-24T02:29:34.742Z,6.24
2022-11-24T02:30:34.721Z,6.24
2022-11-24T02:31:34.748Z,6.21
2022-11-24T02:32:34.701Z,6.25
2022-11-24T02:33:34.690Z,6.11
2022-11-24T02:34:35.097Z,6.30
2022-11-24T02:35:34.679Z,6.30
2022-11-24T02:36:34.677Z,6.17
2022-11-24T02:37:34.659Z,6.02
2022-11-24T02:38:34.651Z,6.16
2022-11-24T02:39:34.653Z,6.13
2022-11-24T02:40:34.666Z,6.13
2022-11-24T02:41:34.620Z,6.06
2022-11-24T02:42:34.615Z,5.98
2022-11-24T02:43:34.609Z,6.02
2022-11-24T02:44:34.830Z,6.10
2022-11-24T02:45:34.586Z,6.02
2022-11-24T02:46:34.605Z,5.92
2022-11-24T02:47:34.567Z,5.99
2022-11-24T02:48:34.555Z,6.06
2022-11-24T02:49:34.563Z,6.17
2022-11-24T02:50:34.553Z,6.28
2022-11-24T02:51:34.536Z,6.27
2022-11-24T02:52:34.524Z,6.28
2022-11-24T02:53:34.516Z,6.30
2022-11-24T02:54:34.774Z,6.30
2022-11-24T02:55:34.499Z,6.35
2022-11-24T02:56:34.490Z,6.40
2022-11-24T02:57:34.486Z,6.38
2022-11-24T02:58:34.472Z,6.35
2022-11-24T02:59:34.553Z,6.43
2022-11-24T03:00:34.459Z,6.45
2022-11-24T03:01:34.527Z,6.40
2022-11-24T03:02:34.455Z,6.38
2022-11-24T03:03:35.423Z,6.39
2022-11-24T03:04:34.658Z,6.36
2022-11-24T03:05:34.407Z,6.40
2022-11-24T03:06:34.400Z,6.39
2022-11-24T03:07:34.425Z,6.30
2022-11-24T03:08:34.382Z,6.39
2022-11-24T03:09:34.384Z,6.36
2022-11-24T03:10:34.384Z,6.33
2022-11-24T03:11:34.357Z,6.24
2022-11-24T03:12:34.364Z,6.14
2022-11-24T03:13:34.338Z,5.98
2022-11-24T03:14:34.486Z,6.11
2022-11-24T03:15:34.386Z,6.30
2022-11-24T03:16:34.315Z,6.21
2022-11-24T03:17:34.307Z,6.24
2022-11-24T03:18:34.292Z,6.19
2022-11-24T03:19:34.298Z,6.14
2022-11-24T03:20:34.323Z,5.95
2022-11-24T03:21:34.266Z,5.84
2022-11-24T03:22:34.257Z,5.83
2022-11-24T03:23:34.251Z,5.92
2022-11-24T03:24:34.590Z,5.96
2022-11-24T03:25:34.225Z,5.95
2022-11-24T03:26:34.222Z,5.98
2022-11-24T03:27:34.213Z,6.01
2022-11-24T03:28:34.197Z,6.02
2022-11-24T03:29:35.207Z,5.96
2022-11-24T03:30:34.225Z,5.81
2022-11-24T03:31:34.243Z,5.85
2022-11-24T03:32:34.176Z,5.95
2022-11-24T03:33:34.163Z,5.93
2022-11-24T03:34:34.450Z,6.05
2022-11-24T03:35:34.146Z,6.01
2022-11-24T03:36:34.146Z,6.17
2022-11-24T03:37:34.128Z,6.20
2022-11-24T03:38:34.117Z,6.21
2022-11-24T03:39:34.120Z,6.27
2022-11-24T03:40:34.100Z,6.33
2022-11-24T03:41:34.092Z,6.36
2022-11-24T03:42:34.084Z,6.28
2022-11-24T03:43:37.827Z,6.24
2022-11-24T03:44:35.350Z,6.13
2022-11-24T03:45:49.312Z,6.03
2022-11-24T03:46:38.682Z,6.10
2022-11-24T03:47:34.042Z,6.17
2022-11-24T03:48:34.037Z,6.19
2022-11-24T03:49:34.302Z,6.24
2022-11-24T03:50:34.012Z,6.10
2022-11-24T03:51:34.005Z,6.17
2022-11-24T03:52:33.996Z,6.24
2022-11-24T03:53:34.008Z,6.05
2022-11-24T03:54:34.454Z,5.99
2022-11-24T03:55:33.971Z,6.02
2022-11-24T03:56:33.961Z,6.11
2022-11-24T03:57:33.951Z,6.20
2022-11-24T03:58:33.949Z,6.10
2022-11-24T03:59:33.942Z,6.02
2022-11-24T04:00:33.924Z,6.14
2022-11-24T04:01:33.996Z,6.14
2022-11-24T04:02:33.951Z,6.17
2022-11-24T04:03:33.896Z,6.20
2022-11-24T04:04:33.991Z,6.19
2022-11-24T04:05:33.874Z,6.13
2022-11-24T04:06:33.871Z,6.10
2022-11-24T04:07:33.906Z,6.21
2022-11-24T04:08:33.856Z,6.24
2022-11-24T04:09:33.851Z,6.19
2022-11-24T04:10:33.836Z,6.21
2022-11-24T04:11:33.828Z,6.21
2022-11-24T04:12:33.823Z,6.30
2022-11-24T04:13:33.813Z,6.28
2022-11-24T04:14:34.080Z,6.36
2022-11-24T04:15:33.789Z,6.39
2022-11-24T04:16:33.851Z,6.39
2022-11-24T04:17:33.773Z,6.35
2022-11-24T04:18:33.764Z,6.42
2022-11-24T04:19:33.769Z,6.40
2022-11-24T04:20:33.751Z,6.53
2022-11-24T04:21:33.734Z,6.45
2022-11-24T04:22:33.748Z,6.40
2022-11-24T04:23:33.720Z,6.46
2022-11-24T04:24:34.062Z,6.46
2022-11-24T04:25:33.717Z,6.53
2022-11-24T04:26:33.696Z,6.50
2022-11-24T04:27:33.686Z,6.38
2022-11-24T04:28:33.676Z,6.50
2022-11-24T04:29:33.685Z,6.42
2022-11-24T04:30:33.669Z,6.42
2022-11-24T04:31:33.670Z,6.48
2022-11-24T04:32:33.642Z,6.61
2022-11-24T04:33:33.637Z,6.57
2022-11-24T04:34:33.878Z,6.68
2022-11-24T04:35:33.623Z,6.60
2022-11-24T04:36:33.605Z,6.55
2022-11-24T04:37:33.592Z,6.53
2022-11-24T04:39:25.672Z,6.53
2022-11-24T04:39:34.574Z,6.55
2022-11-24T04:40:33.578Z,6.58
2022-11-24T04:41:33.557Z,6.65
2022-11-24T04:42:33.548Z,6.58
2022-11-24T04:43:39.164Z,6.61
2022-11-24T04:44:36.088Z,6.63
2022-11-24T04:45:33.533Z,6.64
2022-11-24T04:46:33.597Z,6.68
2022-11-24T04:47:33.518Z,6.61
2022-11-24T04:48:33.500Z,6.53
2022-11-24T04:49:33.495Z,6.63
2022-11-24T04:50:33.496Z,6.60
2022-11-24T04:51:33.484Z,6.65
2022-11-24T04:52:33.467Z,6.58
2022-11-24T04:53:33.463Z,6.57
2022-11-24T04:54:33.760Z,6.64
2022-11-24T04:55:33.455Z,6.64
2022-11-24T04:56:33.434Z,6.72
2022-11-24T04:57:33.429Z,6.68
2022-11-24T04:58:33.419Z,6.65
2022-11-24T04:59:33.405Z,6.68
2022-11-24T05:00:33.408Z,6.68
2022-11-24T05:01:33.419Z,6.73
2022-11-24T05:02:33.377Z,6.69
2022-11-24T05:03:33.366Z,6.64
2022-11-24T05:04:33.640Z,6.75
2022-11-24T05:05:33.365Z,6.69
2022-11-24T05:06:33.335Z,6.71
2022-11-24T05:07:33.481Z,6.73
2022-11-24T05:08:33.331Z,6.72
2022-11-24T05:09:58.164Z,6.65
2022-11-24T05:10:35.376Z,6.61
2022-11-24T05:11:33.294Z,6.61
2022-11-24T05:12:33.285Z,6.57
2022-11-24T05:13:33.270Z,6.60
2022-11-24T05:14:33.559Z,6.71
2022-11-24T05:15:33.271Z,6.65
2022-11-24T05:16:33.274Z,6.63
2022-11-24T05:17:33.269Z,6.48
2022-11-24T05:18:33.235Z,6.39
2022-11-24T05:19:33.221Z,6.50
2022-11-24T05:20:33.231Z,6.43
2022-11-24T05:21:33.209Z,6.50
2022-11-24T05:22:33.198Z,6.43
2022-11-24T05:23:33.185Z,6.35
2022-11-24T05:24:33.523Z,6.39
2022-11-24T05:25:33.197Z,6.50
2022-11-24T05:26:33.164Z,6.53
2022-11-24T05:27:33.156Z,6.61
2022-11-24T05:28:33.143Z,6.64
2022-11-24T05:29:33.135Z,6.51
2022-11-24T05:30:33.145Z,6.55
2022-11-24T05:31:33.149Z,6.69
2022-11-24T05:32:33.116Z,6.54
2022-11-24T05:33:33.105Z,6.73
2022-11-24T05:34:33.302Z,6.65
2022-11-24T05:35:33.097Z,6.71
2022-11-24T05:36:33.074Z,6.71
2022-11-24T05:37:33.067Z,6.63
2022-11-24T05:38:33.076Z,6.65
2022-11-24T05:39:33.046Z,6.72
2022-11-24T05:40:33.054Z,6.64
2022-11-24T05:41:33.029Z,6.53
2022-11-24T05:42:33.027Z,6.55
2022-11-24T05:43:33.022Z,6.68
2022-11-24T05:44:33.269Z,6.65
2022-11-24T05:45:33.006Z,6.65
2022-11-24T05:46:33.042Z,6.76
2022-11-24T05:47:32.980Z,6.73
2022-11-24T05:48:32.967Z,6.69
2022-11-24T05:49:32.958Z,6.65
2022-11-24T05:50:32.955Z,6.61
2022-11-24T05:51:32.932Z,6.68
2022-11-24T05:52:32.926Z,6.69
2022-11-24T05:53:32.912Z,6.72
2022-11-24T05:54:33.185Z,6.64
2022-11-24T05:55:32.908Z,6.69
2022-11-24T05:56:32.896Z,6.69
2022-11-24T05:57:32.879Z,6.71
2022-11-24T05:58:32.875Z,6.69
2022-11-24T05:59:32.864Z,6.63
2022-11-24T06:00:32.868Z,6.63
2022-11-24T06:01:32.869Z,6.55
2022-11-24T06:02:32.965Z,6.43
2022-11-24T06:03:32.830Z,6.39
2022-11-24T06:04:33.283Z,6.42
2022-11-24T06:05:32.820Z,6.39
2022-11-24T06:06:32.804Z,6.42
2022-11-24T06:07:32.865Z,6.43
2022-11-24T06:08:32.783Z,6.38
2022-11-24T06:09:32.776Z,6.48
2022-11-24T06:10:32.777Z,6.38
2022-11-24T06:11:32.752Z,6.39
2022-11-24T06:12:32.747Z,6.39
2022-11-24T06:13:32.819Z,6.36
2022-11-24T06:14:33.043Z,6.38
2022-11-24T06:15:32.727Z,6.36
2022-11-24T06:16:32.727Z,6.24
2022-11-24T06:17:33.701Z,6.25
2022-11-24T06:18:32.689Z,6.32
2022-11-24T06:19:32.681Z,6.28
2022-11-24T06:20:33.235Z,6.35
2022-11-24T06:21:33.663Z,6.28
2022-11-24T06:22:32.652Z,6.33
2022-11-24T06:23:32.644Z,6.36
2022-11-24T06:24:32.944Z,6.33
2022-11-24T06:25:32.638Z,6.36
2022-11-24T06:26:32.618Z,6.46
2022-11-24T06:27:32.611Z,6.36
2022-11-24T06:28:32.601Z,6.42
2022-11-24T06:29:32.593Z,6.39
2022-11-24T06:30:32.614Z,6.35
2022-11-24T06:31:32.637Z,6.40
2022-11-24T06:32:32.556Z,6.36
2022-11-24T06:33:32.556Z,6.42
2022-11-24T06:34:33.017Z,6.45
2022-11-24T06:35:32.558Z,6.39
2022-11-24T06:36:32.536Z,6.39
2022-11-24T06:37:32.518Z,6.43
2022-11-24T06:38:32.510Z,6.28
2022-11-24T06:39:32.498Z,6.30
2022-11-24T06:40:32.502Z,6.27
2022-11-24T06:41:32.484Z,6.30
2022-11-24T06:42:32.471Z,6.28
2022-11-24T06:43:32.466Z,6.30
2022-11-24T06:44:32.944Z,6.28
2022-11-24T06:45:32.523Z,6.35
2022-11-24T06:46:32.441Z,6.36
2022-11-24T06:47:32.429Z,6.32
2022-11-24T06:48:32.421Z,6.32
2022-11-24T06:49:32.417Z,6.27
2022-11-24T06:50:33.856Z,6.30
2022-11-24T06:51:33.405Z,6.33
2022-11-24T06:52:32.492Z,6.28
2022-11-24T06:53:32.375Z,6.27
2022-11-24T06:54:32.802Z,5.98
2022-11-24T06:55:32.385Z,6.06
2022-11-24T06:56:32.369Z,6.03
2022-11-24T06:57:32.350Z,6.27
2022-11-24T06:58:32.383Z,6.20
2022-11-24T06:59:32.325Z,6.32
2022-11-24T07:00:32.330Z,6.27
2022-11-24T07:01:32.378Z,6.20
2022-11-24T07:02:32.482Z,6.28
2022-11-24T07:03:32.435Z,6.30
2022-11-24T07:04:32.768Z,6.43
2022-11-24T07:05:32.285Z,6.36
2022-11-24T07:06:32.269Z,6.25
2022-11-24T07:07:32.329Z,6.27
2022-11-24T07:08:32.262Z,6.30
2022-11-24T07:09:32.241Z,6.30
2022-11-24T07:10:32.248Z,6.35
2022-11-24T07:11:32.259Z,6.42
2022-11-24T07:12:32.223Z,6.40
2022-11-24T07:13:32.217Z,6.46
2022-11-24T07:14:32.424Z,6.54
2022-11-24T07:15:32.218Z,6.51
2022-11-24T07:16:32.241Z,6.46
2022-11-24T07:17:32.177Z,6.51
2022-11-24T07:18:32.166Z,6.57
2022-11-24T07:19:32.159Z,6.53
2022-11-24T07:20:32.149Z,6.63
2022-11-24T07:21:32.154Z,6.58
2022-11-24T07:22:32.233Z,6.69
2022-11-24T07:23:32.127Z,6.51
2022-11-24T07:24:32.445Z,6.46
2022-11-24T07:25:32.152Z,6.53
2022-11-24T07:26:32.105Z,6.54
2022-11-24T07:27:32.089Z,6.53
2022-11-24T07:28:32.081Z,6.50
2022-11-24T07:29:32.154Z,6.46
2022-11-24T07:30:32.071Z,6.48
2022-11-24T07:31:32.109Z,6.46
2022-11-24T07:32:32.180Z,6.42
2022-11-24T07:33:32.036Z,6.51
2022-11-24T07:34:32.371Z,6.55
2022-11-24T07:35:32.186Z,6.60
2022-11-24T07:36:32.192Z,6.68
2022-11-24T07:37:32.152Z,6.58
2022-11-24T07:38:32.027Z,6.63
2022-11-24T07:39:32.016Z,6.58
2022-11-24T07:40:31.979Z,6.54
2022-11-24T07:41:31.978Z,6.69
2022-11-24T07:42:31.960Z,6.57
2022-11-24T07:43:31.968Z,6.68
2022-11-24T07:44:32.069Z,6.64
2022-11-24T07:45:31.991Z,6.69
2022-11-24T07:46:31.934Z,6.64
2022-11-24T07:47:31.919Z,6.60
2022-11-24T07:48:31.898Z,6.61
2022-11-24T07:49:32.896Z,6.68
2022-11-24T07:50:31.896Z,6.72
2022-11-24T07:51:31.891Z,6.63
2022-11-24T07:52:31.873Z,6.76
2022-11-24T07:53:31.863Z,6.73
2022-11-24T07:54:32.038Z,6.78
2022-11-24T07:55:31.852Z,6.86
2022-11-24T07:56:31.845Z,6.73
2022-11-24T07:57:31.846Z,6.76
2022-11-24T07:58:32.982Z,6.81
2022-11-24T07:59:32.814Z,6.89
2022-11-24T08:00:31.801Z,6.81
2022-11-24T08:01:31.908Z,6.81
2022-11-24T08:02:31.780Z,6.90
2022-11-24T08:03:31.966Z,6.82
2022-11-24T08:04:31.935Z,6.94
2022-11-24T08:05:31.758Z,6.97
2022-11-24T08:06:40.697Z,6.90
2022-11-24T08:07:33.784Z,6.93
2022-11-24T08:08:31.734Z,6.99
2022-11-24T08:09:31.724Z,7.01
2022-11-24T08:10:31.712Z,6.99
2022-11-24T08:11:31.762Z,7.05
2022-11-24T08:12:31.822Z,7.08
2022-11-24T08:13:31.684Z,7.14
2022-11-24T08:14:31.946Z,7.12
2022-11-24T08:15:31.826Z,7.14
2022-11-24T08:16:31.794Z,7.08
2022-11-24T08:17:31.716Z,7.14
2022-11-24T08:18:31.654Z,7.01
2022-11-24T08:19:31.634Z,7.09
2022-11-24T08:20:31.622Z,7.11
2022-11-24T08:21:31.618Z,7.21
2022-11-24T08:22:31.604Z,7.15
2022-11-24T08:23:31.595Z,7.18
2022-11-24T08:24:31.939Z,7.19
2022-11-24T08:25:31.595Z,7.23
2022-11-24T08:26:31.576Z,7.19
2022-11-24T08:27:31.563Z,7.19
2022-11-24T08:28:31.638Z,7.07
2022-11-24T08:29:31.543Z,7.01
2022-11-24T08:30:31.535Z,7.01
2022-11-24T08:31:31.586Z,6.94
2022-11-24T08:32:31.523Z,6.93
2022-11-24T08:33:31.506Z,6.86
2022-11-24T08:34:31.770Z,6.87
2022-11-24T08:35:31.497Z,6.86
2022-11-24T08:36:31.495Z,6.82
2022-11-24T08:37:31.472Z,6.79
2022-11-24T08:38:31.462Z,6.89
2022-11-24T08:39:31.486Z,6.76
2022-11-24T08:40:31.453Z,6.90
2022-11-24T08:41:31.468Z,6.87
2022-11-24T08:42:31.426Z,7.08
2022-11-24T08:43:31.419Z,7.00
2022-11-24T08:44:31.468Z,7.14
2022-11-24T08:45:34.305Z,7.04
2022-11-24T08:46:32.489Z,7.09
2022-11-24T08:47:31.385Z,7.14
2022-11-24T08:48:31.375Z,7.08
2022-11-24T08:49:31.363Z,7.08
2022-11-24T08:50:31.506Z,7.04
2022-11-24T08:51:31.398Z,7.12
2022-11-24T08:52:31.339Z,7.16
2022-11-24T08:53:31.343Z,7.16
2022-11-24T08:54:31.417Z,7.21
2022-11-24T08:55:31.306Z,7.33
2022-11-24T08:56:31.313Z,7.36
2022-11-24T08:57:31.291Z,7.36
2022-11-24T08:58:31.290Z,7.34
2022-11-24T08:59:31.410Z,7.30
2022-11-24T09:00:31.261Z,7.26
2022-11-24T09:01:31.356Z,7.36
2022-11-24T09:02:31.239Z,7.44
2022-11-24T09:03:31.232Z,7.48
2022-11-24T09:04:31.268Z,7.37
2022-11-24T09:06:00.023Z,7.52
2022-11-24T09:06:33.216Z,7.50
2022-11-24T09:07:31.277Z,7.60
2022-11-24T09:08:31.179Z,7.55
2022-11-24T09:09:31.173Z,7.63
2022-11-24T09:10:31.165Z,7.63
2022-11-24T09:11:31.163Z,7.60
2022-11-24T09:12:31.146Z,7.69
2022-11-24T09:13:31.139Z,7.73
2022-11-24T09:14:31.379Z,7.74
2022-11-24T09:15:31.113Z,7.73
2022-11-24T09:16:31.155Z,7.73
2022-11-24T09:17:31.104Z,7.62
2022-11-24T09:18:31.088Z,7.73
2022-11-24T09:19:31.170Z,7.67
2022-11-24T09:20:31.066Z,7.62
2022-11-24T09:21:31.075Z,7.70
2022-11-24T09:22:31.045Z,7.58
2022-11-24T09:23:31.038Z,7.57
2022-11-24T09:24:31.024Z,7.62
2022-11-24T09:25:31.046Z,7.74
2022-11-24T09:26:31.026Z,7.71
2022-11-24T09:27:30.996Z,7.62
2022-11-24T09:28:30.994Z,7.62
2022-11-24T09:29:31.001Z,7.69
2022-11-24T09:30:31.055Z,7.70
2022-11-24T09:31:31.035Z,7.84
2022-11-24T09:32:30.949Z,7.77
2022-11-24T09:33:30.948Z,7.86
2022-11-24T09:34:30.938Z,7.85
2022-11-24T09:35:30.925Z,7.89
2022-11-24T09:36:30.926Z,7.81
2022-11-24T09:37:32.804Z,7.99
2022-11-24T09:38:31.891Z,7.99
2022-11-24T09:39:30.889Z,8.03
2022-11-24T09:40:30.878Z,7.94
2022-11-24T09:41:30.876Z,8.03
2022-11-24T09:42:30.866Z,7.96
2022-11-24T09:43:30.876Z,7.94
2022-11-24T09:44:30.843Z,8.17
2022-11-24T09:46:03.333Z,7.94
2022-11-24T09:46:32.955Z,8.04
2022-11-24T09:47:30.921Z,8.00
2022-11-24T09:48:30.801Z,8.04
2022-11-24T09:49:30.798Z,8.04
2022-11-24T09:50:30.783Z,8.04
2022-11-24T09:51:30.782Z,8.20
2022-11-24T09:52:30.762Z,8.18
2022-11-24T09:53:30.750Z,8.13
2022-11-24T09:54:30.744Z,8.14
2022-11-24T09:55:30.731Z,8.12
2022-11-24T09:56:30.730Z,8.14
2022-11-24T09:57:35.808Z,8.21
2022-11-24T09:58:32.708Z,8.22
2022-11-24T09:59:30.688Z,8.21
2022-11-24T10:00:30.666Z,8.17
2022-11-24T10:01:31.747Z,8.21
2022-11-24T10:02:30.657Z,8.18
2022-11-24T10:03:30.647Z,8.24
2022-11-24T10:04:30.805Z,8.10
2022-11-24T10:05:30.633Z,8.22
2022-11-24T10:06:30.639Z,8.24
2022-11-24T10:07:30.682Z,8.22
2022-11-24T10:08:30.607Z,8.22
2022-11-24T10:09:30.599Z,8.24
2022-11-24T10:10:30.598Z,8.27
2022-11-24T10:11:30.591Z,8.34
2022-11-24T10:12:30.572Z,8.24
2022-11-24T10:13:30.577Z,8.40
2022-11-24T10:14:30.612Z,8.45
2022-11-24T10:15:30.596Z,8.58
2022-11-24T10:16:30.587Z,8.61
2022-11-24T10:17:30.525Z,8.60
2022-11-24T10:18:30.519Z,8.67
2022-11-24T10:19:37.019Z,8.80
2022-11-24T10:20:32.500Z,8.75
2022-11-24T10:21:30.502Z,8.70
2022-11-24T10:22:30.479Z,8.86
2022-11-24T10:23:31.314Z,8.89
2022-11-24T10:24:30.456Z,8.83
2022-11-24T10:25:30.449Z,8.80
2022-11-24T10:26:30.446Z,8.89
2022-11-24T10:27:30.427Z,8.96
2022-11-24T10:28:30.416Z,8.89
2022-11-24T10:29:30.408Z,8.93
2022-11-24T10:30:30.396Z,8.93
2022-11-24T10:31:30.464Z,8.97
2022-11-24T10:32:30.377Z,8.93
2022-11-24T10:33:31.112Z,8.79
2022-11-24T10:34:31.397Z,8.88
2022-11-24T10:35:30.379Z,8.76
2022-11-24T10:36:30.355Z,8.78
2022-11-24T10:37:30.413Z,8.79
2022-11-24T10:38:30.319Z,8.70
2022-11-24T10:39:30.312Z,8.86
2022-11-24T10:40:56.007Z,8.82
2022-11-24T10:41:32.305Z,8.94
2022-11-24T10:42:30.281Z,9.03
2022-11-24T10:43:30.268Z,9.10
2022-11-24T10:44:31.342Z,9.10
2022-11-24T10:45:30.251Z,9.20
2022-11-24T10:46:33.661Z,9.26
2022-11-24T10:47:32.237Z,9.40
2022-11-24T10:48:30.225Z,9.45
2022-11-24T10:49:30.324Z,9.41
2022-11-24T10:50:30.206Z,9.31
2022-11-24T10:51:30.211Z,9.41
2022-11-24T10:52:30.181Z,9.45
2022-11-24T10:53:30.198Z,9.49
2022-11-24T10:54:30.177Z,9.50
2022-11-24T10:55:30.199Z,9.55
2022-11-24T10:56:30.159Z,9.60
2022-11-24T10:57:30.179Z,9.74
2022-11-24T10:58:35.869Z,9.78
2022-11-24T10:59:32.560Z,9.73
2022-11-24T11:00:30.123Z,9.70
2022-11-24T11:01:30.253Z,9.67
2022-11-24T11:02:30.237Z,9.53
2022-11-24T11:03:30.122Z,9.62
2022-11-24T11:04:30.078Z,9.65
2022-11-24T11:05:30.070Z,9.77
2022-11-24T11:06:30.093Z,9.92
2022-11-24T11:07:30.100Z,9.99
2022-11-24T11:08:30.045Z,10.13
2022-11-24T11:09:30.029Z,10.16
2022-11-24T11:10:30.024Z,10.09
2022-11-24T11:11:30.100Z,10.10
2022-11-24T11:12:44.993Z,10.11
2022-11-24T11:13:31.996Z,10.07
2022-11-24T11:14:29.982Z,10.11
2022-11-24T11:15:30.107Z,10.18
2022-11-24T11:16:30.016Z,10.13
2022-11-24T11:17:29.987Z,10.06
2022-11-24T11:18:29.969Z,10.13
2022-11-24T11:20:31.931Z,9.99
2022-11-24T11:21:29.982Z,9.91
2022-11-24T11:22:29.948Z,9.95
2022-11-24T11:23:29.969Z,9.88
2022-11-24T11:24:29.897Z,9.95
2022-11-24T11:25:29.937Z,9.83
2022-11-24T11:26:29.968Z,9.75
2022-11-24T11:27:29.866Z,9.78
2022-11-24T11:28:29.903Z,9.77
2022-11-24T11:31:31.834Z,9.73
2022-11-24T11:34:31.793Z,9.74
2022-11-24T11:35:29.776Z,9.77
2022-11-24T11:36:29.768Z,9.71
2022-11-24T11:37:29.767Z,9.74
2022-11-24T11:38:29.760Z,9.78
2022-11-24T11:39:29.736Z,9.60
2022-11-24T11:40:29.749Z,9.68
2022-11-24T11:41:29.742Z,9.58
2022-11-24T11:43:00.823Z,9.53
2022-11-24T11:43:31.699Z,9.45
2022-11-24T11:44:29.691Z,9.40
2022-11-24T11:45:29.688Z,9.40
2022-11-24T11:46:29.703Z,9.42
2022-11-24T11:47:29.658Z,9.44
2022-11-24T11:48:32.484Z,9.37
2022-11-24T11:49:30.629Z,9.44
2022-11-24T11:50:29.640Z,9.58
2022-11-24T11:51:29.795Z,9.63
2022-11-24T11:52:29.619Z,9.73
2022-11-24T11:53:29.591Z,9.78
2022-11-24T11:54:29.580Z,9.88
2022-11-24T11:55:29.569Z,9.99
2022-11-24T11:56:29.570Z,10.10
2022-11-24T11:57:29.564Z,10.13
2022-11-24T11:58:29.556Z,10.11
2022-11-24T11:59:29.537Z,10.24
2022-11-24T12:00:29.526Z,10.32
2022-11-24T12:01:29.516Z,10.38
2022-11-24T12:02:29.665Z,10.34
2022-11-24T12:03:29.594Z,10.35
2022-11-24T12:04:29.496Z,10.32
2022-11-24T12:05:29.481Z,10.42
2022-11-24T12:06:29.471Z,10.46
2022-11-24T12:07:29.516Z,10.31
2022-11-24T12:08:31.321Z,10.28
2022-11-24T12:09:30.445Z,10.29
2022-11-24T12:10:29.433Z,10.31
2022-11-24T12:11:29.432Z,10.16
2022-11-24T12:12:29.434Z,10.22
2022-11-24T12:13:29.412Z,10.26
2022-11-24T12:14:29.402Z,10.29
2022-11-24T12:15:29.393Z,10.29
2022-11-24T12:16:29.447Z,10.28
2022-11-24T12:17:29.379Z,10.31
2022-11-24T12:18:56.572Z,10.25
2022-11-24T12:19:31.436Z,10.31
2022-11-24T12:20:29.339Z,10.28
2022-11-24T12:21:29.464Z,10.34
2022-11-24T12:22:29.330Z,10.18
2022-11-24T12:23:29.295Z,10.14
2022-11-24T12:24:30.343Z,10.09
2022-11-24T12:25:29.283Z,10.11
2022-11-24T12:26:29.277Z,10.13
2022-11-24T12:27:29.283Z,10.07
2022-11-24T12:28:29.289Z,10.10
2022-11-24T12:29:29.240Z,10.13
2022-11-24T12:30:30.245Z,9.98
2022-11-24T12:31:29.261Z,10.07
2022-11-24T12:32:29.227Z,10.11
2022-11-24T12:33:29.209Z,10.04
2022-11-24T12:34:29.241Z,10.04
2022-11-24T12:35:29.188Z,10.02
2022-11-24T12:36:29.175Z,9.95
2022-11-24T12:37:29.178Z,9.93
2022-11-24T12:38:29.157Z,9.99
2022-11-24T12:39:29.153Z,10.07
2022-11-24T12:40:29.142Z,10.04
2022-11-24T12:41:44.448Z,10.07
2022-11-24T12:42:31.126Z,10.07
2022-11-24T12:43:29.112Z,10.11
2022-11-24T12:44:29.092Z,10.14
2022-11-24T12:45:29.132Z,10.09
2022-11-24T12:46:29.130Z,10.09
2022-11-24T12:47:29.141Z,10.09
2022-11-24T12:48:29.079Z,10.01
2022-11-24T12:49:29.044Z,9.98
2022-11-24T12:50:29.065Z,9.99
2022-11-24T12:51:29.024Z,10.02
2022-11-24T12:52:29.027Z,9.98
2022-11-24T12:53:28.994Z,10.04
2022-11-24T12:54:29.997Z,10.04
2022-11-24T12:55:28.985Z,9.93
2022-11-24T12:56:28.974Z,9.95
2022-11-24T12:57:28.973Z,9.95
2022-11-24T12:58:28.952Z,9.85
2022-11-24T12:59:28.949Z,9.80
2022-11-24T13:00:28.933Z,9.85
2022-11-24T13:01:28.990Z,9.73
2022-11-24T13:02:29.092Z,9.65
2022-11-24T13:03:28.910Z,9.56
2022-11-24T13:04:28.895Z,9.62
2022-11-24T13:05:28.890Z,9.53
2022-11-24T13:06:28.898Z,9.52
2022-11-24T13:07:28.916Z,9.52
2022-11-24T13:08:28.859Z,9.48
2022-11-24T13:09:28.888Z,9.56
2022-11-24T13:10:58.635Z,9.63
2022-11-24T13:11:30.830Z,9.71
2022-11-24T13:12:28.829Z,9.68
2022-11-24T13:13:28.807Z,9.68
2022-11-24T13:14:28.788Z,9.60
2022-11-24T13:15:45.582Z,9.67
2022-11-24T13:16:48.750Z,9.71
2022-11-24T13:17:38.361Z,9.71
2022-11-24T13:18:30.785Z,9.62
2022-11-24T13:19:28.775Z,9.68
2022-11-24T13:20:28.843Z,9.75
2022-11-24T13:21:28.729Z,9.70